createdAt,value
2018-10-21T00:01:19.857Z,21.35
2018-10-21T00:03:24.080Z,24.95
2018-10-21T00:05:27.954Z,20.97
2018-10-21T00:07:32.116Z,23.25
2018-10-21T00:09:35.956Z,21.80
2018-10-21T00:11:39.903Z,18.73
2018-10-21T00:13:43.721Z,18.12
2018-10-21T00:15:47.570Z,19.85
2018-10-21T00:17:51.821Z,19.82
2018-10-21T00:19:55.689Z,19.95
2018-10-21T00:21:59.567Z,22.22
2018-10-21T00:24:03.516Z,19.85
2018-10-21T00:26:08.147Z,19.17
2018-10-21T00:28:12.157Z,19.80
2018-10-21T00:30:16.056Z,19.75
2018-10-21T00:32:19.946Z,24.32
2018-10-21T00:34:23.821Z,21.57
2018-10-21T00:36:27.725Z,22.13
2018-10-21T00:38:31.674Z,20.65
2018-10-21T00:40:35.635Z,18.85
2018-10-21T00:42:39.644Z,18.85
2018-10-21T00:44:43.522Z,17.57
2018-10-21T00:46:47.427Z,23.18
2018-10-21T00:48:51.690Z,23.27
2018-10-21T00:50:55.542Z,30.17
2018-10-21T00:52:59.633Z,27.60
2018-10-21T00:55:04.975Z,23.80
2018-10-21T00:57:09.051Z,22.90
2018-10-21T00:59:12.947Z,23.02
2018-10-21T01:01:17.501Z,24.47
2018-10-21T01:03:21.726Z,30.00
2018-10-21T01:05:25.584Z,22.48
2018-10-21T01:07:29.496Z,24.10
2018-10-21T01:09:33.342Z,20.27
2018-10-21T01:11:37.248Z,19.17
2018-10-21T01:13:41.136Z,23.07
2018-10-21T01:15:44.960Z,21.65
2018-10-21T01:17:48.880Z,22.42
2018-10-21T01:19:52.716Z,18.27
2018-10-21T01:21:56.561Z,22.17
2018-10-21T01:24:00.402Z,19.65
2018-10-21T01:26:04.564Z,18.48
2018-10-21T01:28:08.747Z,18.48
2018-10-21T01:30:13.268Z,21.42
2018-10-21T01:32:18.292Z,23.10
2018-10-21T01:34:25.112Z,20.25
2018-10-21T01:36:29.077Z,21.27
2018-10-21T01:38:33.036Z,22.20
2018-10-21T01:40:44.360Z,22.87
2018-10-21T01:42:48.178Z,21.75
2018-10-21T01:44:52.067Z,21.73
2018-10-21T01:46:56.398Z,21.33
2018-10-21T01:49:00.237Z,23.75
2018-10-21T01:51:04.304Z,18.87
2018-10-21T01:53:09.451Z,20.17
2018-10-21T01:55:13.280Z,20.43
2018-10-21T01:57:17.889Z,19.98
2018-10-21T01:59:21.932Z,18.48
2018-10-21T02:01:25.839Z,18.77
2018-10-21T02:03:30.699Z,22.25
2018-10-21T02:05:35.165Z,19.20
2018-10-21T02:07:39.720Z,21.20
2018-10-21T02:09:43.606Z,19.95
2018-10-21T02:11:47.511Z,21.60
2018-10-21T02:13:51.416Z,19.40
2018-10-21T02:15:55.311Z,19.77
2018-10-21T02:17:59.190Z,18.50
2018-10-21T02:20:03.118Z,16.65
2018-10-21T02:22:07.005Z,19.60
2018-10-21T02:24:10.876Z,18.67
2018-10-21T02:26:14.733Z,21.23
2018-10-21T02:28:18.948Z,19.20
2018-10-21T02:30:24.886Z,20.15
2018-10-21T02:32:28.763Z,21.25
2018-10-21T02:34:32.641Z,19.52
2018-10-21T02:36:36.472Z,17.62
2018-10-21T02:38:40.380Z,20.00
2018-10-21T02:41:21.784Z,24.47
2018-10-21T02:43:25.639Z,24.43
2018-10-21T02:45:29.527Z,22.30
2018-10-21T02:47:33.396Z,23.57
2018-10-21T02:49:37.247Z,23.38
2018-10-21T02:51:41.154Z,21.48
2018-10-21T02:53:45.976Z,18.60
2018-10-21T02:55:49.833Z,22.60
2018-10-21T02:57:53.738Z,22.10
2018-10-21T02:59:57.592Z,20.75
2018-10-21T03:02:01.447Z,26.50
2018-10-21T03:04:05.353Z,22.20
2018-10-21T03:06:16.006Z,19.52
2018-10-21T03:08:19.838Z,22.15
2018-10-21T03:10:23.663Z,22.07
2018-10-21T03:12:27.520Z,23.65
2018-10-21T03:14:31.436Z,19.95
2018-10-21T03:16:35.332Z,22.22
2018-10-21T03:18:39.298Z,20.62
2018-10-21T03:20:43.560Z,19.90
2018-10-21T03:22:47.355Z,24.43
2018-10-21T03:24:51.248Z,19.60
2018-10-21T03:26:55.183Z,18.67
2018-10-21T03:28:59.198Z,18.92
2018-10-21T03:31:03.137Z,18.52
2018-10-21T03:33:07.371Z,19.48
2018-10-21T03:35:11.341Z,18.17
2018-10-21T03:37:15.263Z,19.23
2018-10-21T03:39:19.137Z,24.05
2018-10-21T03:41:23.387Z,21.95
2018-10-21T03:43:27.347Z,25.35
2018-10-21T03:45:31.827Z,20.92
2018-10-21T03:47:35.770Z,24.80
2018-10-21T03:49:39.680Z,27.67
2018-10-21T03:51:43.800Z,26.57
2018-10-21T03:53:47.734Z,23.22
2018-10-21T03:55:51.621Z,22.52
2018-10-21T03:57:55.504Z,20.20
2018-10-21T03:59:59.369Z,21.62
2018-10-21T04:02:03.825Z,20.77
2018-10-21T04:04:08.505Z,19.60
2018-10-21T04:06:12.587Z,19.27
2018-10-21T04:08:16.496Z,23.07
2018-10-21T04:10:20.429Z,20.88
2018-10-21T04:12:24.330Z,20.30
2018-10-21T04:14:28.216Z,19.85
2018-10-21T04:16:32.142Z,20.48
2018-10-21T04:18:37.071Z,22.82
2018-10-21T04:20:40.964Z,21.82
2018-10-21T04:22:54.387Z,21.00
2018-10-21T04:24:58.215Z,19.85
2018-10-21T04:27:02.113Z,21.85
2018-10-21T04:29:05.977Z,23.95
2018-10-21T04:31:09.837Z,18.75
2018-10-21T04:33:18.039Z,18.73
2018-10-21T04:35:22.338Z,20.65
2018-10-21T04:37:37.459Z,20.95
2018-10-21T04:39:52.589Z,22.17
2018-10-21T04:41:56.501Z,22.02
2018-10-21T04:44:00.359Z,22.98
2018-10-21T04:46:04.224Z,18.65
2018-10-21T04:48:15.130Z,21.50
2018-10-21T04:50:18.997Z,21.73
2018-10-21T04:52:24.129Z,25.23
2018-10-21T04:54:34.639Z,20.00
2018-10-21T04:56:45.300Z,21.93
2018-10-21T04:58:49.142Z,21.50
2018-10-21T05:00:52.957Z,22.05
2018-10-21T05:02:56.782Z,19.85
2018-10-21T05:05:00.773Z,23.50
2018-10-21T05:07:04.729Z,24.07
2018-10-21T05:09:08.590Z,23.22
2018-10-21T05:11:12.433Z,22.85
2018-10-21T05:13:16.302Z,22.02
2018-10-21T05:15:20.788Z,20.27
2018-10-21T05:17:24.812Z,23.83
2018-10-21T05:19:28.719Z,22.25
2018-10-21T05:21:32.611Z,23.32
2018-10-21T05:23:36.517Z,22.58
2018-10-21T05:25:44.230Z,21.20
2018-10-21T05:27:48.214Z,18.92
2018-10-21T05:29:52.118Z,24.80
2018-10-21T05:31:56.663Z,21.17
2018-10-21T05:34:01.575Z,23.55
2018-10-21T05:36:05.890Z,22.15
2018-10-21T05:38:09.752Z,25.57
2018-10-21T05:40:14.955Z,28.80
2018-10-21T05:42:18.983Z,22.93
2018-10-21T05:44:22.875Z,22.73
2018-10-21T05:46:46.786Z,25.62
2018-10-21T05:48:50.777Z,18.95
2018-10-21T05:50:54.613Z,22.42
2018-10-21T05:52:58.506Z,23.10
2018-10-21T05:55:02.379Z,21.30
2018-10-21T05:57:06.294Z,19.85
2018-10-21T05:59:10.097Z,20.30
2018-10-21T06:01:13.949Z,22.50
2018-10-21T06:03:17.796Z,24.20
2018-10-21T06:05:34.779Z,22.80
2018-10-21T06:07:38.678Z,21.48
2018-10-21T06:09:42.536Z,23.65
2018-10-21T06:11:46.776Z,27.30
2018-10-21T06:13:50.668Z,21.95
2018-10-21T06:15:54.663Z,22.55
2018-10-21T06:18:07.623Z,21.50
2018-10-21T06:20:27.305Z,25.35
2018-10-21T06:22:36.328Z,20.77
2018-10-21T06:24:40.198Z,25.08
2018-10-21T06:26:44.094Z,26.87
2018-10-21T06:28:48.025Z,24.10
2018-10-21T06:30:51.818Z,22.87
2018-10-21T06:32:55.674Z,23.22
2018-10-21T06:34:59.801Z,21.20
2018-10-21T06:37:03.672Z,19.25
2018-10-21T06:39:08.025Z,23.55
2018-10-21T06:41:12.032Z,22.87
2018-10-21T06:43:15.996Z,22.25
2018-10-21T06:45:19.935Z,20.05
2018-10-21T06:47:23.918Z,21.65
2018-10-21T06:49:27.806Z,20.05
2018-10-21T06:51:31.693Z,21.87
2018-10-21T06:53:36.000Z,17.45
2018-10-21T06:55:39.885Z,17.10
2018-10-21T06:57:44.720Z,16.05
2018-10-21T06:59:48.711Z,15.63
2018-10-21T07:01:52.650Z,13.25
2018-10-21T07:03:57.006Z,16.50
2018-10-21T07:06:10.625Z,13.18
2018-10-21T07:08:14.608Z,15.55
2018-10-21T07:10:19.180Z,14.87
2018-10-21T07:12:23.725Z,15.38
2018-10-21T07:14:28.449Z,13.13
2018-10-21T07:16:32.635Z,14.00
2018-10-21T07:18:36.484Z,15.80
2018-10-21T07:20:40.363Z,18.70
2018-10-21T07:22:45.049Z,16.67
2018-10-21T07:24:49.004Z,18.30
2018-10-21T07:26:52.624Z,14.17
2018-10-21T07:28:56.416Z,16.63
2018-10-21T07:30:59.967Z,14.27
2018-10-21T07:33:03.649Z,15.50
2018-10-21T07:35:09.624Z,13.77
2018-10-21T07:37:13.284Z,15.87
2018-10-21T07:39:16.934Z,12.83
2018-10-21T07:41:20.580Z,12.70
2018-10-21T07:43:26.124Z,13.87
2018-10-21T07:45:29.729Z,13.87
2018-10-21T07:47:33.456Z,13.37
2018-10-21T07:49:38.053Z,14.83
2018-10-21T07:51:41.729Z,13.47
2018-10-21T07:53:45.358Z,14.30
2018-10-21T07:55:49.271Z,11.47
2018-10-21T07:57:53.049Z,12.07
2018-10-21T07:59:56.641Z,13.10
2018-10-21T08:02:00.201Z,12.07
2018-10-21T08:04:03.906Z,12.80
2018-10-21T08:06:29.974Z,13.20
2018-10-21T08:08:33.563Z,13.83
2018-10-21T08:10:37.320Z,12.40
2018-10-21T08:12:40.873Z,13.13
2018-10-21T08:14:44.584Z,12.70
2018-10-21T08:16:48.348Z,13.57
2018-10-21T08:18:52.718Z,15.87
2018-10-21T08:20:56.492Z,13.53
2018-10-21T08:23:00.054Z,13.20
2018-10-21T08:25:03.632Z,12.73
2018-10-21T08:27:07.261Z,15.07
2018-10-21T08:29:11.069Z,15.50
2018-10-21T08:31:14.681Z,15.03
2018-10-21T08:33:18.284Z,14.47
2018-10-21T08:35:22.241Z,14.30
2018-10-21T08:37:25.813Z,15.77
2018-10-21T08:39:29.392Z,14.30
2018-10-21T08:41:32.948Z,14.83
2018-10-21T08:43:36.589Z,13.93
2018-10-21T08:45:40.164Z,14.00
2018-10-21T08:47:43.823Z,13.43
2018-10-21T08:49:47.644Z,14.47
2018-10-21T08:51:51.384Z,13.83
2018-10-21T08:53:55.062Z,14.23
2018-10-21T08:55:58.703Z,13.37
2018-10-21T08:58:02.542Z,14.30
2018-10-21T09:00:09.904Z,16.43
2018-10-21T09:02:13.485Z,13.17
2018-10-21T09:04:17.266Z,13.37
2018-10-21T09:06:21.000Z,12.57
2018-10-21T09:08:24.650Z,13.97
2018-10-21T09:10:28.322Z,13.80
2018-10-21T09:12:32.101Z,12.17
2018-10-21T09:14:35.750Z,12.17
2018-10-21T09:16:39.460Z,12.90
2018-10-21T09:18:43.126Z,12.27
2018-10-21T09:20:46.757Z,13.13
2018-10-21T09:22:50.350Z,12.80
2018-10-21T09:24:54.004Z,12.17
2018-10-21T09:26:57.685Z,12.67
2018-10-21T09:29:01.288Z,11.83
2018-10-21T09:31:05.362Z,12.00
2018-10-21T09:33:12.083Z,12.13
2018-10-21T09:35:17.164Z,11.33
2018-10-21T09:37:20.752Z,14.47
2018-10-21T09:39:30.653Z,12.27
2018-10-21T09:41:34.261Z,11.97
2018-10-21T09:43:38.201Z,11.17
2018-10-21T09:45:41.826Z,11.57
2018-10-21T09:47:46.029Z,11.03
2018-10-21T09:49:49.611Z,11.20
2018-10-21T09:51:53.414Z,9.40
2018-10-21T09:53:57.010Z,10.30
2018-10-21T09:56:00.648Z,11.77
2018-10-21T09:58:04.268Z,12.03
2018-10-21T10:00:08.132Z,9.83
2018-10-21T10:02:17.164Z,8.73
2018-10-21T10:04:20.899Z,9.37
2018-10-21T10:06:24.615Z,9.33
2018-10-21T10:08:28.605Z,7.67
2018-10-21T10:10:32.245Z,9.03
2018-10-21T10:12:35.848Z,6.20
2018-10-21T10:14:39.444Z,8.80
2018-10-21T10:16:51.343Z,8.23
2018-10-21T10:18:55.016Z,8.17
2018-10-21T10:20:58.544Z,7.17
2018-10-21T10:23:02.256Z,6.80
2018-10-21T10:25:07.571Z,6.97
2018-10-21T10:27:11.381Z,8.43
2018-10-21T10:29:15.036Z,5.37
2018-10-21T10:31:18.801Z,6.33
2018-10-21T10:33:22.515Z,5.27
2018-10-21T10:35:27.047Z,3.67
2018-10-21T10:37:30.646Z,6.13
2018-10-21T10:39:35.700Z,5.13
2018-10-21T10:41:40.408Z,4.57
2018-10-21T10:43:44.201Z,7.03
2018-10-21T10:45:47.820Z,3.50
2018-10-21T10:47:58.264Z,3.90
2018-10-21T10:50:01.927Z,7.73
2018-10-21T10:52:06.382Z,3.40
2018-10-21T10:54:09.912Z,3.43
2018-10-21T10:56:13.549Z,4.13
2018-10-21T10:58:17.487Z,4.07
2018-10-21T11:00:21.731Z,2.97
2018-10-21T11:02:25.348Z,2.77
2018-10-21T11:04:28.927Z,5.87
2018-10-21T11:06:32.618Z,4.43
2018-10-21T11:08:36.216Z,2.93
2018-10-21T11:10:39.821Z,4.50
2018-10-21T11:12:43.412Z,4.63
2018-10-21T11:14:47.152Z,4.07
2018-10-21T11:16:50.920Z,5.67
2018-10-21T11:18:54.546Z,3.30
2018-10-21T11:20:59.207Z,3.83
2018-10-21T11:23:03.245Z,3.30
2018-10-21T11:25:08.847Z,4.90
2018-10-21T11:27:13.669Z,4.87
2018-10-21T11:29:17.309Z,2.37
2018-10-21T11:31:20.950Z,4.33
2018-10-21T11:33:24.507Z,2.77
2018-10-21T11:35:28.185Z,2.27
2018-10-21T11:37:31.901Z,2.17
2018-10-21T11:39:35.568Z,2.00
2018-10-21T11:41:40.082Z,3.50
2018-10-21T11:43:43.720Z,3.53
2018-10-21T11:45:47.344Z,2.43
2018-10-21T11:47:51.154Z,3.80
2018-10-21T11:49:55.608Z,3.27
2018-10-21T11:51:59.233Z,3.37
2018-10-21T11:54:03.632Z,3.83
2018-10-21T11:56:07.978Z,2.40
2018-10-21T11:58:13.732Z,3.60
2018-10-21T12:00:17.808Z,2.73
2018-10-21T12:02:21.506Z,3.80
2018-10-21T12:04:25.136Z,1.83
2018-10-21T12:06:28.780Z,3.60
2018-10-21T12:08:32.446Z,4.17
2018-10-21T12:10:36.093Z,3.60
2018-10-21T12:12:39.742Z,4.27
2018-10-21T12:14:43.388Z,2.33
2018-10-21T12:16:53.488Z,2.93
2018-10-21T12:18:57.381Z,2.50
2018-10-21T12:21:01.107Z,2.93
2018-10-21T12:23:05.185Z,2.23
2018-10-21T12:25:08.725Z,2.73
2018-10-21T12:27:12.560Z,2.90
2018-10-21T12:29:16.172Z,2.90
2018-10-21T12:31:19.933Z,2.90
2018-10-21T12:33:23.803Z,2.43
2018-10-21T12:35:27.392Z,1.60
2018-10-21T12:37:31.098Z,2.00
2018-10-21T12:39:35.229Z,1.90
2018-10-21T12:41:39.216Z,2.10
2018-10-21T12:43:42.946Z,2.00
2018-10-21T12:45:46.531Z,1.57
2018-10-21T12:47:50.181Z,3.27
2018-10-21T12:49:53.825Z,1.80
2018-10-21T12:51:57.553Z,3.63
2018-10-21T12:54:01.214Z,1.87
2018-10-21T12:56:05.269Z,1.57
2018-10-21T12:58:09.046Z,1.80
2018-10-21T13:00:12.833Z,1.67
2018-10-21T13:02:17.281Z,3.00
2018-10-21T13:04:21.088Z,2.27
2018-10-21T13:06:24.799Z,2.37
2018-10-21T13:08:28.511Z,2.07
2018-10-21T13:10:32.196Z,1.23
2018-10-21T13:12:36.943Z,3.10
2018-10-21T13:14:40.568Z,1.20
2018-10-21T13:16:44.206Z,2.93
2018-10-21T13:18:47.867Z,1.90
2018-10-21T13:20:51.562Z,2.97
2018-10-21T13:22:55.265Z,3.17
2018-10-21T13:24:59.322Z,3.80
2018-10-21T13:27:03.070Z,3.30
2018-10-21T13:29:06.740Z,2.67
2018-10-21T13:31:10.342Z,2.70
2018-10-21T13:33:14.070Z,4.10
2018-10-21T13:35:17.681Z,2.77
2018-10-21T13:37:21.327Z,3.83
2018-10-21T13:39:25.002Z,3.50
2018-10-21T13:41:28.602Z,4.20
2018-10-21T13:43:32.205Z,4.77
2018-10-21T13:45:35.873Z,3.60
2018-10-21T13:47:39.849Z,4.40
2018-10-21T13:49:43.432Z,4.40
2018-10-21T13:51:47.153Z,6.07
2018-10-21T13:53:50.860Z,6.17
2018-10-21T13:55:54.399Z,3.20
2018-10-21T13:57:58.077Z,3.43
2018-10-21T14:00:01.841Z,3.63
2018-10-21T14:02:05.597Z,3.33
2018-10-21T14:04:09.274Z,5.43
2018-10-21T14:06:13.001Z,3.70
2018-10-21T14:08:16.621Z,4.77
2018-10-21T14:10:20.245Z,3.30
2018-10-21T14:12:23.834Z,5.93
2018-10-21T14:14:27.456Z,5.40
2018-10-21T14:16:31.176Z,3.97
2018-10-21T14:18:34.796Z,4.27
2018-10-21T14:20:38.456Z,7.30
2018-10-21T14:22:42.084Z,4.37
2018-10-21T14:24:46.089Z,5.37
2018-10-21T14:26:49.867Z,3.40
2018-10-21T14:28:53.496Z,3.53
2018-10-21T14:30:57.128Z,3.77
2018-10-21T14:33:00.902Z,4.63
2018-10-21T14:35:05.832Z,7.50
2018-10-21T14:37:09.398Z,6.37
2018-10-21T14:39:14.065Z,5.80
2018-10-21T14:41:17.795Z,4.33
2018-10-21T14:43:21.404Z,5.77
2018-10-21T14:45:25.052Z,6.23
2018-10-21T14:47:28.784Z,4.40
2018-10-21T14:49:32.764Z,7.30
2018-10-21T14:51:42.944Z,4.87
2018-10-21T14:53:46.545Z,4.63
2018-10-21T14:55:50.148Z,6.43
2018-10-21T14:57:53.776Z,4.97
2018-10-21T14:59:57.397Z,4.03
2018-10-21T15:02:01.211Z,6.73
2018-10-21T15:04:05.204Z,4.57
2018-10-21T15:06:09.175Z,4.77
2018-10-21T15:08:13.797Z,5.13
2018-10-21T15:10:17.641Z,4.30
2018-10-21T15:12:21.418Z,6.00
2018-10-21T15:14:24.981Z,8.27
2018-10-21T15:16:28.600Z,4.90
2018-10-21T15:18:32.196Z,10.30
2018-10-21T15:20:35.963Z,6.30
2018-10-21T15:22:39.596Z,7.90
2018-10-21T15:24:43.128Z,6.00
2018-10-21T15:26:46.712Z,4.60
2018-10-21T15:28:57.187Z,5.23
2018-10-21T15:31:01.052Z,4.80
2018-10-21T15:33:04.653Z,4.47
2018-10-21T15:35:08.400Z,8.77
2018-10-21T15:37:12.029Z,5.50
2018-10-21T15:39:15.627Z,6.10
2018-10-21T15:41:19.254Z,5.83
2018-10-21T15:43:22.852Z,5.57
2018-10-21T15:45:26.464Z,9.07
2018-10-21T15:47:30.113Z,3.87
2018-10-21T15:49:33.880Z,5.23
2018-10-21T15:51:37.564Z,9.00
2018-10-21T15:53:41.373Z,7.43
2018-10-21T15:55:45.092Z,8.43
2018-10-21T15:57:48.684Z,6.03
2018-10-21T15:59:52.282Z,3.87
2018-10-21T16:01:55.875Z,5.50
2018-10-21T16:03:59.601Z,7.40
2018-10-21T16:06:05.125Z,7.23
2018-10-21T16:08:08.715Z,7.07
2018-10-21T16:10:12.432Z,8.23
2018-10-21T16:12:16.080Z,7.37
2018-10-21T16:14:21.110Z,7.20
2018-10-21T16:16:24.897Z,7.03
2018-10-21T16:18:28.445Z,6.97
2018-10-21T16:20:32.016Z,8.57
2018-10-21T16:22:37.177Z,6.73
2018-10-21T16:24:40.706Z,7.23
2018-10-21T16:26:44.248Z,6.90
2018-10-21T16:28:47.947Z,7.43
2018-10-21T16:30:51.565Z,5.10
2018-10-21T16:32:55.510Z,7.10
2018-10-21T16:34:59.017Z,8.83
2018-10-21T16:37:02.629Z,9.47
2018-10-21T16:39:09.402Z,11.07
2018-10-21T16:41:15.272Z,8.20
2018-10-21T16:43:18.867Z,8.93
2018-10-21T16:45:28.920Z,7.17
2018-10-21T16:47:33.553Z,6.70
2018-10-21T16:49:37.152Z,9.13
2018-10-21T16:51:40.931Z,6.80
2018-10-21T16:53:45.259Z,7.43
2018-10-21T16:55:48.812Z,6.83
2018-10-21T16:57:52.382Z,8.33
2018-10-21T16:59:56.030Z,6.70
2018-10-21T17:01:59.738Z,6.47
2018-10-21T17:04:03.710Z,5.40
2018-10-21T17:06:07.301Z,5.30
2018-10-21T17:08:10.866Z,5.50
2018-10-21T17:10:14.771Z,7.57
2018-10-21T17:12:18.118Z,5.83
2018-10-21T17:14:21.729Z,4.97
2018-10-21T17:16:25.240Z,5.73
2018-10-21T17:18:28.822Z,7.03
2018-10-21T17:20:32.455Z,7.80
2018-10-21T17:22:36.449Z,10.97
2018-10-21T17:24:39.990Z,5.97
2018-10-21T17:26:43.557Z,4.93
2018-10-21T17:28:47.216Z,5.87
2018-10-21T17:30:50.888Z,7.10
2018-10-21T17:32:54.448Z,6.57
2018-10-21T17:34:58.074Z,7.77
2018-10-21T17:37:01.978Z,8.43
2018-10-21T17:39:10.228Z,9.40
2018-10-21T17:41:14.309Z,10.45
2018-10-21T17:43:17.963Z,6.30
2018-10-21T17:45:21.966Z,6.03
2018-10-21T17:47:26.121Z,10.28
2018-10-21T17:49:30.060Z,7.08
2018-10-21T17:51:34.092Z,5.60
2018-10-21T17:53:37.708Z,5.97
2018-10-21T17:55:41.555Z,5.22
2018-10-21T17:57:45.767Z,7.85
2018-10-21T17:59:49.620Z,5.30
2018-10-21T18:01:53.933Z,5.92
2018-10-21T18:03:57.781Z,6.65
2018-10-21T18:06:02.100Z,6.90
2018-10-21T18:08:06.069Z,10.60
2018-10-21T18:10:10.211Z,10.28
2018-10-21T18:12:14.240Z,8.13
2018-10-21T18:14:20.004Z,7.20
2018-10-21T18:16:24.548Z,9.45
2018-10-21T18:18:28.446Z,11.08
2018-10-21T18:20:32.751Z,11.90
2018-10-21T18:22:36.848Z,13.00
2018-10-21T18:24:40.720Z,9.25
2018-10-21T18:26:44.592Z,9.88
2018-10-21T18:28:48.567Z,8.40
2018-10-21T18:30:52.437Z,9.88
2018-10-21T18:32:56.373Z,7.58
2018-10-21T18:35:00.336Z,8.65
2018-10-21T18:37:04.254Z,12.05
2018-10-21T18:39:10.263Z,12.90
2018-10-21T18:41:14.388Z,14.58
2018-10-21T18:43:18.357Z,10.13
2018-10-21T18:45:22.385Z,10.63
2018-10-21T18:47:26.236Z,5.62
2018-10-21T18:49:30.088Z,8.35
2018-10-21T18:51:34.043Z,8.18
2018-10-21T18:53:37.904Z,5.85
2018-10-21T18:55:41.766Z,6.78
2018-10-21T18:57:45.573Z,7.67
2018-10-21T18:59:49.427Z,6.70
2018-10-21T19:01:53.289Z,5.95
2018-10-21T19:03:57.569Z,6.12
2018-10-21T19:06:01.656Z,6.30
2018-10-21T19:08:12.573Z,8.28
2018-10-21T19:10:16.743Z,9.45
2018-10-21T19:12:20.723Z,6.22
2018-10-21T19:14:25.337Z,7.40
2018-10-21T19:16:29.209Z,6.55
2018-10-21T19:18:33.132Z,7.90
2018-10-21T19:20:37.016Z,5.67
2018-10-21T19:22:41.192Z,6.40
2018-10-21T19:24:45.084Z,6.78
2018-10-21T19:26:48.917Z,6.60
2018-10-21T19:28:52.765Z,6.60
2018-10-21T19:30:56.622Z,6.25
2018-10-21T19:33:00.494Z,5.10
2018-10-21T19:35:04.457Z,8.23
2018-10-21T19:37:08.492Z,7.37
2018-10-21T19:39:13.487Z,5.50
2018-10-21T19:41:17.339Z,6.70
2018-10-21T19:43:21.396Z,9.13
2018-10-21T19:45:25.338Z,7.17
2018-10-21T19:47:29.141Z,6.03
2018-10-21T19:49:32.992Z,6.50
2018-10-21T19:51:36.918Z,7.15
2018-10-21T19:53:40.745Z,6.22
2018-10-21T19:55:50.935Z,6.60
2018-10-21T19:57:54.783Z,5.33
2018-10-21T19:59:58.813Z,6.35
2018-10-21T20:02:02.676Z,7.37
2018-10-21T20:04:06.640Z,5.50
2018-10-21T20:06:10.561Z,6.08
2018-10-21T20:08:14.432Z,11.93
2018-10-21T20:10:18.331Z,7.87
2018-10-21T20:12:22.334Z,8.75
2018-10-21T20:14:26.179Z,7.62
2018-10-21T20:16:30.032Z,7.03
2018-10-21T20:18:33.900Z,10.72
2018-10-21T20:20:37.748Z,6.80
2018-10-21T20:22:41.607Z,7.70
2018-10-21T20:24:45.456Z,6.47
2018-10-21T20:26:49.336Z,9.55
2018-10-21T20:28:53.187Z,7.12
2018-10-21T20:30:57.129Z,10.68
2018-10-21T20:33:01.103Z,8.05
2018-10-21T20:35:06.384Z,7.53
2018-10-21T20:37:10.182Z,7.83
2018-10-21T20:39:14.069Z,11.80
2018-10-21T20:41:17.971Z,11.70
2018-10-21T20:43:21.810Z,8.85
2018-10-21T20:45:25.624Z,9.85
2018-10-21T20:47:29.448Z,8.28
2018-10-21T20:49:33.272Z,7.83
2018-10-21T20:51:37.260Z,10.23
2018-10-21T20:53:41.122Z,6.95
2018-10-21T20:55:44.977Z,14.98
2018-10-21T20:57:48.940Z,10.72
2018-10-21T20:59:52.904Z,8.68
2018-10-21T21:01:56.825Z,10.60
2018-10-21T21:04:07.271Z,14.40
2018-10-21T21:06:11.406Z,13.45
2018-10-21T21:08:18.447Z,16.60
2018-10-21T21:10:22.459Z,15.03
2018-10-21T21:12:26.312Z,13.70
2018-10-21T21:14:30.217Z,13.32
2018-10-21T21:16:34.123Z,13.85
2018-10-21T21:18:38.013Z,12.63
2018-10-21T21:20:42.011Z,12.50
2018-10-21T21:22:46.020Z,12.43
2018-10-21T21:24:49.905Z,13.13
2018-10-21T21:26:53.735Z,13.38
2018-10-21T21:28:57.645Z,12.28
2018-10-21T21:31:01.521Z,11.85
2018-10-21T21:33:06.274Z,12.70
2018-10-21T21:35:10.143Z,14.87
2018-10-21T21:37:14.059Z,13.00
2018-10-21T21:39:17.880Z,12.05
2018-10-21T21:41:21.751Z,11.43
2018-10-21T21:43:25.613Z,18.90
2018-10-21T21:45:29.464Z,15.75
2018-10-21T21:47:33.346Z,14.93
2018-10-21T21:49:37.206Z,12.43
2018-10-21T21:51:41.103Z,17.77
2018-10-21T21:53:44.948Z,11.22
2018-10-21T21:55:48.802Z,10.53
2018-10-21T21:57:52.677Z,10.63
2018-10-21T21:59:56.645Z,12.78
2018-10-21T22:02:00.669Z,9.05
2018-10-21T22:04:04.652Z,8.20
2018-10-21T22:06:08.694Z,12.15
2018-10-21T22:08:13.100Z,10.05
2018-10-21T22:10:17.729Z,7.03
2018-10-21T22:12:21.832Z,7.92
2018-10-21T22:14:25.899Z,8.23
2018-10-21T22:16:30.653Z,7.42
2018-10-21T22:18:34.925Z,8.20
2018-10-21T22:20:38.771Z,9.53
2018-10-21T22:22:42.984Z,7.12
2018-10-21T22:24:46.890Z,7.33
2018-10-21T22:26:50.785Z,6.45
2018-10-21T22:28:54.701Z,6.55
2018-10-21T22:30:59.284Z,8.00
2018-10-21T22:33:10.664Z,5.78
2018-10-21T22:35:14.607Z,9.73
2018-10-21T22:37:18.475Z,7.45
2018-10-21T22:39:22.962Z,6.78
2018-10-21T22:41:26.786Z,6.35
2018-10-21T22:43:30.621Z,9.05
2018-10-21T22:45:34.463Z,5.90
2018-10-21T22:47:38.861Z,7.65
2018-10-21T22:49:42.729Z,6.75
2018-10-21T22:51:46.600Z,8.70
2018-10-21T22:53:50.954Z,9.30
2018-10-21T22:55:54.864Z,8.58
2018-10-21T22:57:58.752Z,6.37
2018-10-21T23:00:02.871Z,7.72
2018-10-21T23:02:07.904Z,6.30
2018-10-21T23:04:11.869Z,8.55
2018-10-21T23:06:15.912Z,7.75
2018-10-21T23:08:19.924Z,8.28
2018-10-21T23:10:23.762Z,7.75
2018-10-21T23:12:27.618Z,8.00
2018-10-21T23:14:31.482Z,8.15
2018-10-21T23:16:38.160Z,5.87
2018-10-21T23:18:42.157Z,9.65
2018-10-21T23:20:46.372Z,7.95
2018-10-21T23:22:50.210Z,7.65
2018-10-21T23:24:54.097Z,8.40
2018-10-21T23:26:58.012Z,6.87
2018-10-21T23:29:01.884Z,6.20
2018-10-21T23:31:06.348Z,6.70
2018-10-21T23:33:10.246Z,9.25
2018-10-21T23:35:14.127Z,8.55
2018-10-21T23:37:17.975Z,8.78
2018-10-21T23:39:21.856Z,7.58
2018-10-21T23:41:25.709Z,6.80
2018-10-21T23:43:29.553Z,8.60
2018-10-21T23:45:33.473Z,7.92
2018-10-21T23:47:37.407Z,7.87
2018-10-21T23:49:41.264Z,8.45
2018-10-21T23:51:45.508Z,7.80
2018-10-21T23:53:49.362Z,7.08
2018-10-21T23:55:53.255Z,6.60
2018-10-21T23:57:57.107Z,8.60
